Date,TemperatureHighF,TemperatureAvgF,TemperatureLowF,DewpointHighF,DewpointAvgF,DewpointLowF,HumidityHigh,HumidityAvg,HumidityLow,PressureMaxIn,PressureMinIn,WindSpeedMaxMPH,WindSpeedAvgMPH,GustSpeedMaxMPH,PrecipitationSumIn
2013-1-1,7.3,1.7,-7.6,-5.1,-9.3,-18.6,64,59,56,30.29,30.22,0,0,0,0.00
2013-1-2,22.8,15.7,4.3,13.7,6.1,-4.3,74,65,57,30.07,29.95,0,0,0,0.00
2013-1-3,23.0,14.1,8.2,17.2,4.5,-1.2,80,65,60,30.26,30.02,0,0,0,0.00
2013-1-4,29.8,22.6,8.2,18.3,13.0,-1.1,75,66,58,30.18,30.07,0,0,0,0.00
2013-1-5,34.7,24.0,9.5,26.5,16.7,2.1,82,73,66,30.16,29.86,0,0,0,0.00
2013-1-6,32.2,24.2,7.2,17.0,13.8,0.4,75,65,53,30.23,29.93,4,1,4,0.09
2013-1-7,41.4,25.8,0.0,26.4,16.2,0.6,84,66,52,30.23,29.98,14,3,21,0.00
2013-1-8,44.6,30.2,0.0,32.1,22.2,11.0,82,64,56,30.01,29.88,6,4,9,0.00
2013-1-9,43.7,31.4,20.3,27.5,21.6,12.4,83,68,47,30.41,29.94,16,3,23,0.00
2013-1-10,42.1,26.7,18.3,34.7,19.7,12.4,90,75,43,30.41,29.76,9,3,11,0.07
2013-1-11,46.0,40.7,34.0,43.8,39.8,32.0,99,96,88,29.77,29.48,11,2,14,0.01
2013-1-12,50.5,22.1,16.3,44.3,10.5,2.3,88,60,53,30.04,29.47,16,6,22,0.00
2013-1-13,16.3,12.9,7.9,2.3,-0.2,-4.1,64,55,52,30.09,29.93,14,5,19,0.00
2013-1-14,24.4,12.9,4.6,10.8,2.4,-4.1,75,62,44,30.23,30.03,8,2,10,0.00
2013-1-15,36.7,11.9,6.6,13.2,2.2,-1.0,72,65,37,30.17,29.78,14,2,18,0.01
2013-1-16,39.0,27.7,25.0,31.1,15.5,7.6,73,60,47,29.78,29.55,17,5,26,0.00
2013-1-17,24.8,21.2,13.6,9.6,-1.0,-9.6,54,37,31,30.20,29.95,10,4,13,0.00
2013-1-18,50.7,36.7,23.2,33.1,23.9,9.1,84,60,48,30.17,29.58,12,3,21,0.00
2013-1-19,52.9,29.2,8.2,34.3,13.6,-11.2,86,52,36,29.94,29.48,30,11,42,0.00
2013-1-20,21.6,10.2,5.0,-4.6,-8.9,-13.8,50,41,23,30.16,29.93,14,5,19,0.00
2013-1-21,7.7,-0.1,-4.2,-8.0,-19.1,-25.3,49,39,26,30.12,29.99,15,6,21,0.00
2013-1-22,11.5,-0.9,-8.3,-9.9,-17.3,-22.2,56,45,26,30.20,30.06,8,3,12,0.00
2013-1-23,19.2,13.3,7.9,7.0,0.4,-9.9,68,56,43,30.06,29.92,10,3,12,0.00
2013-1-24,-1.7,-1.7,-1.7,-19.0,-19.0,-19.0,42,42,42,30.48,30.45,2,2,4,0.00